sensor_id;sensor_type;location;lat;lon;timestamp;temperature;humidity
8872;DHT22;4472;52.092;9.820;2022-08-19T00:00:46;20.60;99.90
8872;DHT22;4472;52.092;9.820;2022-08-19T00:03:34;20.60;99.90
8872;DHT22;4472;52.092;9.820;2022-08-19T00:06:21;20.50;99.90
8872;DHT22;4472;52.092;9.820;2022-08-19T00:09:13;20.50;99.90
8872;DHT22;4472;52.092;9.820;2022-08-19T00:12:02;20.50;99.90
8872;DHT22;4472;52.092;9.820;2022-08-19T00:14:49;20.50;99.90
8872;DHT22;4472;52.092;9.820;2022-08-19T00:17:36;20.50;99.90
8872;DHT22;4472;52.092;9.820;2022-08-19T00:20:25;20.50;99.90
8872;DHT22;4472;52.092;9.820;2022-08-19T00:23:12;20.40;99.90
8872;DHT22;4472;52.092;9.820;2022-08-19T00:26:00;20.40;99.90
8872;DHT22;4472;52.092;9.820;2022-08-19T00:28:48;20.40;99.90
8872;DHT22;4472;52.092;9.820;2022-08-19T00:31:35;20.40;99.90
8872;DHT22;4472;52.092;9.820;2022-08-19T00:34:22;20.30;99.90
8872;DHT22;4472;52.092;9.820;2022-08-19T00:37:12;20.30;99.90
8872;DHT22;4472;52.092;9.820;2022-08-19T00:39:59;20.30;99.90
8872;DHT22;4472;52.092;9.820;2022-08-19T00:42:47;20.30;99.90
8872;DHT22;4472;52.092;9.820;2022-08-19T00:45:35;20.30;99.90
8872;DHT22;4472;52.092;9.820;2022-08-19T00:48:22;20.30;99.90
8872;DHT22;4472;52.092;9.820;2022-08-19T00:51:10;20.30;99.90
8872;DHT22;4472;52.092;9.820;2022-08-19T00:53:59;20.20;99.90
8872;DHT22;4472;52.092;9.820;2022-08-19T00:56:47;20.20;99.90
8872;DHT22;4472;52.092;9.820;2022-08-19T00:59:37;20.10;99.90
8872;DHT22;4472;52.092;9.820;2022-08-19T01:02:27;20.10;99.90
8872;DHT22;4472;52.092;9.820;2022-08-19T01:05:17;20.00;99.90
8872;DHT22;4472;52.092;9.820;2022-08-19T01:08:07;20.00;99.90
8872;DHT22;4472;52.092;9.820;2022-08-19T01:10:58;19.90;99.90
8872;DHT22;4472;52.092;9.820;2022-08-19T01:13:46;19.90;99.90
8872;DHT22;4472;52.092;9.820;2022-08-19T01:16:34;19.80;99.90
8872;DHT22;4472;52.092;9.820;2022-08-19T01:19:27;19.80;99.90
8872;DHT22;4472;52.092;9.820;2022-08-19T01:22:19;19.70;99.90
8872;DHT22;4472;52.092;9.820;2022-08-19T01:25:09;19.70;99.90
8872;DHT22;4472;52.092;9.820;2022-08-19T01:27:57;19.70;99.90
8872;DHT22;4472;52.092;9.820;2022-08-19T01:30:45;19.70;99.90
8872;DHT22;4472;52.092;9.820;2022-08-19T01:33:33;19.70;99.90
8872;DHT22;4472;52.092;9.820;2022-08-19T01:36:23;19.70;99.90
8872;DHT22;4472;52.092;9.820;2022-08-19T01:39:17;19.60;99.90
8872;DHT22;4472;52.092;9.820;2022-08-19T01:42:08;19.80;99.90
8872;DHT22;4472;52.092;9.820;2022-08-19T01:44:58;19.50;99.90
8872;DHT22;4472;52.092;9.820;2022-08-19T01:47:46;19.50;99.90
8872;DHT22;4472;52.092;9.820;2022-08-19T01:50:34;19.50;99.90
8872;DHT22;4472;52.092;9.820;2022-08-19T01:53:21;19.50;99.90
8872;DHT22;4472;52.092;9.820;2022-08-19T01:56:09;19.40;99.90
8872;DHT22;4472;52.092;9.820;2022-08-19T01:59:00;19.40;99.90
8872;DHT22;4472;52.092;9.820;2022-08-19T02:01:48;19.40;99.90
8872;DHT22;4472;52.092;9.820;2022-08-19T02:04:36;19.40;99.90
8872;DHT22;4472;52.092;9.820;2022-08-19T02:07:24;19.40;99.90
8872;DHT22;4472;52.092;9.820;2022-08-19T02:10:15;19.40;99.90
8872;DHT22;4472;52.092;9.820;2022-08-19T02:13:03;19.40;99.90
8872;DHT22;4472;52.092;9.820;2022-08-19T02:15:51;19.40;99.90
8872;DHT22;4472;52.092;9.820;2022-08-19T02:18:38;19.40;99.90
8872;DHT22;4472;52.092;9.820;2022-08-19T02:21:26;19.30;99.90
8872;DHT22;4472;52.092;9.820;2022-08-19T02:24:13;19.30;99.90
8872;DHT22;4472;52.092;9.820;2022-08-19T02:27:00;19.20;99.90
8872;DHT22;4472;52.092;9.820;2022-08-19T02:29:48;19.30;99.90
8872;DHT22;4472;52.092;9.820;2022-08-19T02:32:37;19.30;99.90
8872;DHT22;4472;52.092;9.820;2022-08-19T02:35:25;19.30;99.90
8872;DHT22;4472;52.092;9.820;2022-08-19T02:38:12;19.40;99.90
8872;DHT22;4472;52.092;9.820;2022-08-19T02:41:20;19.40;99.90
8872;DHT22;4472;52.092;9.820;2022-08-19T02:44:08;19.40;99.90
8872;DHT22;4472;52.092;9.820;2022-08-19T02:46:55;19.40;99.90
8872;DHT22;4472;52.092;9.820;2022-08-19T02:49:44;19.50;99.90
8872;DHT22;4472;52.092;9.820;2022-08-19T02:52:32;19.50;99.90
8872;DHT22;4472;52.092;9.820;2022-08-19T02:55:19;19.50;99.90
8872;DHT22;4472;52.092;9.820;2022-08-19T02:58:06;19.40;99.90
8872;DHT22;4472;52.092;9.820;2022-08-19T03:00:55;19.40;99.90
8872;DHT22;4472;52.092;9.820;2022-08-19T03:03:42;19.40;99.90
8872;DHT22;4472;52.092;9.820;2022-08-19T03:06:31;19.30;99.90
8872;DHT22;4472;52.092;9.820;2022-08-19T03:09:20;19.40;99.90
8872;DHT22;4472;52.092;9.820;2022-08-19T03:12:07;19.60;99.90
8872;DHT22;4472;52.092;9.820;2022-08-19T03:14:54;19.40;99.90
8872;DHT22;4472;52.092;9.820;2022-08-19T03:17:41;19.50;99.90
8872;DHT22;4472;52.092;9.820;2022-08-19T03:20:28;19.50;99.90
8872;DHT22;4472;52.092;9.820;2022-08-19T03:23:17;19.60;99.90
8872;DHT22;4472;52.092;9.820;2022-08-19T03:26:05;19.60;99.90
8872;DHT22;4472;52.092;9.820;2022-08-19T03:28:52;19.60;99.90
8872;DHT22;4472;52.092;9.820;2022-08-19T03:31:41;19.60;99.90
8872;DHT22;4472;52.092;9.820;2022-08-19T03:34:31;19.60;99.90
8872;DHT22;4472;52.092;9.820;2022-08-19T03:37:18;19.60;99.90
8872;DHT22;4472;52.092;9.820;2022-08-19T03:40:08;19.60;99.90
8872;DHT22;4472;52.092;9.820;2022-08-19T03:42:55;19.60;99.90
8872;DHT22;4472;52.092;9.820;2022-08-19T03:45:42;19.50;99.90
8872;DHT22;4472;52.092;9.820;2022-08-19T03:48:30;19.60;99.90
8872;DHT22;4472;52.092;9.820;2022-08-19T03:51:19;19.50;99.90
8872;DHT22;4472;52.092;9.820;2022-08-19T03:54:08;19.50;99.90
8872;DHT22;4472;52.092;9.820;2022-08-19T03:56:57;19.50;99.90
8872;DHT22;4472;52.092;9.820;2022-08-19T03:59:45;19.50;99.90
8872;DHT22;4472;52.092;9.820;2022-08-19T04:02:32;19.40;99.90
8872;DHT22;4472;52.092;9.820;2022-08-19T04:05:19;19.40;99.90
8872;DHT22;4472;52.092;9.820;2022-08-19T04:08:06;19.30;99.90
8872;DHT22;4472;52.092;9.820;2022-08-19T04:10:53;19.30;99.90
8872;DHT22;4472;52.092;9.820;2022-08-19T04:13:42;19.30;99.90
8872;DHT22;4472;52.092;9.820;2022-08-19T04:16:30;19.20;99.90
8872;DHT22;4472;52.092;9.820;2022-08-19T04:19:18;19.20;99.90
8872;DHT22;4472;52.092;9.820;2022-08-19T04:22:05;19.10;99.90
8872;DHT22;4472;52.092;9.820;2022-08-19T04:24:52;19.10;99.90
8872;DHT22;4472;52.092;9.820;2022-08-19T04:27:40;19.10;99.90
8872;DHT22;4472;52.092;9.820;2022-08-19T04:30:39;19.10;99.90
8872;DHT22;4472;52.092;9.820;2022-08-19T04:33:26;19.10;99.90
8872;DHT22;4472;52.092;9.820;2022-08-19T04:36:20;19.10;99.90
8872;DHT22;4472;52.092;9.820;2022-08-19T04:39:10;19.10;99.90
8872;DHT22;4472;52.092;9.820;2022-08-19T04:41:57;19.00;99.90
8872;DHT22;4472;52.092;9.820;2022-08-19T04:45:17;19.00;99.90
8872;DHT22;4472;52.092;9.820;2022-08-19T04:48:05;19.00;99.90
8872;DHT22;4472;52.092;9.820;2022-08-19T04:50:54;18.90;99.90
8872;DHT22;4472;52.092;9.820;2022-08-19T04:53:43;18.90;99.90
8872;DHT22;4472;52.092;9.820;2022-08-19T04:56:30;18.90;99.90
8872;DHT22;4472;52.092;9.820;2022-08-19T04:59:18;18.90;99.90
8872;DHT22;4472;52.092;9.820;2022-08-19T05:02:07;18.80;99.90
8872;DHT22;4472;52.092;9.820;2022-08-19T05:04:58;18.80;99.90
8872;DHT22;4472;52.092;9.820;2022-08-19T05:07:47;18.80;99.90
8872;DHT22;4472;52.092;9.820;2022-08-19T05:10:35;18.80;99.90
8872;DHT22;4472;52.092;9.820;2022-08-19T05:13:22;18.80;99.90
8872;DHT22;4472;52.092;9.820;2022-08-19T05:16:11;18.80;99.90
8872;DHT22;4472;52.092;9.820;2022-08-19T05:18:58;18.80;99.90
8872;DHT22;4472;52.092;9.820;2022-08-19T05:22:04;18.80;99.90
8872;DHT22;4472;52.092;9.820;2022-08-19T05:25:12;18.80;99.90
8872;DHT22;4472;52.092;9.820;2022-08-19T05:27:59;18.80;99.90
8872;DHT22;4472;52.092;9.820;2022-08-19T05:30:47;18.80;99.90
8872;DHT22;4472;52.092;9.820;2022-08-19T05:33:36;18.80;99.90
8872;DHT22;4472;52.092;9.820;2022-08-19T05:36:25;18.80;99.90
8872;DHT22;4472;52.092;9.820;2022-08-19T05:39:15;18.80;99.90
8872;DHT22;4472;52.092;9.820;2022-08-19T05:42:05;18.80;99.90
8872;DHT22;4472;52.092;9.820;2022-08-19T05:44:52;18.80;99.90
8872;DHT22;4472;52.092;9.820;2022-08-19T05:47:41;18.90;99.90
8872;DHT22;4472;52.092;9.820;2022-08-19T05:50:28;18.90;99.90
8872;DHT22;4472;52.092;9.820;2022-08-19T05:53:16;18.90;99.90
8872;DHT22;4472;52.092;9.820;2022-08-19T05:56:11;18.80;99.90
8872;DHT22;4472;52.092;9.820;2022-08-19T05:58:58;18.90;99.90
8872;DHT22;4472;52.092;9.820;2022-08-19T06:01:47;18.90;99.90
8872;DHT22;4472;52.092;9.820;2022-08-19T06:04:37;18.90;99.90
8872;DHT22;4472;52.092;9.820;2022-08-19T06:07:25;18.90;99.90
8872;DHT22;4472;52.092;9.820;2022-08-19T06:10:12;19.00;99.90
8872;DHT22;4472;52.092;9.820;2022-08-19T06:13:00;19.00;99.90
8872;DHT22;4472;52.092;9.820;2022-08-19T06:15:50;19.00;99.90
8872;DHT22;4472;52.092;9.820;2022-08-19T06:18:37;19.00;99.90
8872;DHT22;4472;52.092;9.820;2022-08-19T06:21:26;19.00;99.90
8872;DHT22;4472;52.092;9.820;2022-08-19T06:24:16;18.90;99.90
8872;DHT22;4472;52.092;9.820;2022-08-19T06:27:04;19.00;99.90
8872;DHT22;4472;52.092;9.820;2022-08-19T06:29:53;18.90;99.90
8872;DHT22;4472;52.092;9.820;2022-08-19T06:32:40;18.90;99.90
8872;DHT22;4472;52.092;9.820;2022-08-19T06:35:28;18.90;99.90
8872;DHT22;4472;52.092;9.820;2022-08-19T06:38:15;18.90;99.90
8872;DHT22;4472;52.092;9.820;2022-08-19T06:41:04;18.90;99.90
8872;DHT22;4472;52.092;9.820;2022-08-19T06:43:51;18.90;99.90
8872;DHT22;4472;52.092;9.820;2022-08-19T06:46:44;19.00;99.90
8872;DHT22;4472;52.092;9.820;2022-08-19T06:49:31;19.00;99.90
8872;DHT22;4472;52.092;9.820;2022-08-19T06:52:18;19.00;99.90
8872;DHT22;4472;52.092;9.820;2022-08-19T06:55:06;19.00;99.90
8872;DHT22;4472;52.092;9.820;2022-08-19T06:57:53;19.00;99.90
8872;DHT22;4472;52.092;9.820;2022-08-19T07:00:40;19.10;99.90
8872;DHT22;4472;52.092;9.820;2022-08-19T07:03:31;19.10;99.90
8872;DHT22;4472;52.092;9.820;2022-08-19T07:06:19;19.20;99.90
8872;DHT22;4472;52.092;9.820;2022-08-19T07:09:08;19.20;99.90
8872;DHT22;4472;52.092;9.820;2022-08-19T07:11:56;19.30;99.90
8872;DHT22;4472;52.092;9.820;2022-08-19T07:14:43;19.40;99.90
8872;DHT22;4472;52.092;9.820;2022-08-19T07:17:32;19.60;99.90
8872;DHT22;4472;52.092;9.820;2022-08-19T07:20:22;19.70;99.90
8872;DHT22;4472;52.092;9.820;2022-08-19T07:23:09;19.60;99.90
8872;DHT22;4472;52.092;9.820;2022-08-19T07:25:57;19.60;99.90
8872;DHT22;4472;52.092;9.820;2022-08-19T07:28:44;19.60;99.90
8872;DHT22;4472;52.092;9.820;2022-08-19T07:31:31;19.70;99.90
8872;DHT22;4472;52.092;9.820;2022-08-19T07:34:23;19.80;99.90
8872;DHT22;4472;52.092;9.820;2022-08-19T07:37:12;19.90;99.90
8872;DHT22;4472;52.092;9.820;2022-08-19T07:39:59;20.00;99.90
8872;DHT22;4472;52.092;9.820;2022-08-19T07:42:46;20.00;99.90
8872;DHT22;4472;52.092;9.820;2022-08-19T07:45:33;20.00;99.90
8872;DHT22;4472;52.092;9.820;2022-08-19T07:48:20;20.10;99.90
8872;DHT22;4472;52.092;9.820;2022-08-19T07:51:11;20.20;99.90
8872;DHT22;4472;52.092;9.820;2022-08-19T07:53:59;20.30;99.90
8872;DHT22;4472;52.092;9.820;2022-08-19T07:56:47;20.40;99.90
8872;DHT22;4472;52.092;9.820;2022-08-19T07:59:35;20.50;99.90
8872;DHT22;4472;52.092;9.820;2022-08-19T08:02:22;20.60;99.90
8872;DHT22;4472;52.092;9.820;2022-08-19T08:05:10;20.60;99.90
8872;DHT22;4472;52.092;9.820;2022-08-19T08:08:15;20.70;99.90
8872;DHT22;4472;52.092;9.820;2022-08-19T08:11:21;20.90;99.90
8872;DHT22;4472;52.092;9.820;2022-08-19T08:14:08;21.00;99.90
8872;DHT22;4472;52.092;9.820;2022-08-19T08:16:56;21.10;99.90
8872;DHT22;4472;52.092;9.820;2022-08-19T08:19:43;21.70;99.90
8872;DHT22;4472;52.092;9.820;2022-08-19T08:22:30;21.30;99.90
8872;DHT22;4472;52.092;9.820;2022-08-19T08:25:36;21.40;99.90
8872;DHT22;4472;52.092;9.820;2022-08-19T08:28:26;21.50;99.90
8872;DHT22;4472;52.092;9.820;2022-08-19T08:31:15;21.50;99.90
8872;DHT22;4472;52.092;9.820;2022-08-19T08:34:04;21.70;99.90
8872;DHT22;4472;52.092;9.820;2022-08-19T08:36:51;21.90;99.90
8872;DHT22;4472;52.092;9.820;2022-08-19T08:39:38;22.00;99.90
8872;DHT22;4472;52.092;9.820;2022-08-19T08:42:31;22.20;99.90
8872;DHT22;4472;52.092;9.820;2022-08-19T08:45:23;22.30;99.90
8872;DHT22;4472;52.092;9.820;2022-08-19T08:48:18;22.20;99.90
8872;DHT22;4472;52.092;9.820;2022-08-19T08:51:11;22.40;99.60
8872;DHT22;4472;52.092;9.820;2022-08-19T08:54:00;22.40;99.50
8872;DHT22;4472;52.092;9.820;2022-08-19T08:56:49;22.40;99.90
8872;DHT22;4472;52.092;9.820;2022-08-19T08:59:40;22.40;99.90
8872;DHT22;4472;52.092;9.820;2022-08-19T09:02:29;22.40;99.00
8872;DHT22;4472;52.092;9.820;2022-08-19T09:05:17;22.30;98.40
8872;DHT22;4472;52.092;9.820;2022-08-19T09:08:10;22.00;98.60
8872;DHT22;4472;52.092;9.820;2022-08-19T09:11:03;21.80;98.70
8872;DHT22;4472;52.092;9.820;2022-08-19T09:14:04;21.70;99.20
8872;DHT22;4472;52.092;9.820;2022-08-19T09:16:54;21.70;98.70
8872;DHT22;4472;52.092;9.820;2022-08-19T09:19:52;21.60;99.10
8872;DHT22;4472;52.092;9.820;2022-08-19T09:22:41;21.60;99.70
8872;DHT22;4472;52.092;9.820;2022-08-19T09:25:29;21.60;99.20
8872;DHT22;4472;52.092;9.820;2022-08-19T09:28:17;21.70;99.60
8872;DHT22;4472;52.092;9.820;2022-08-19T09:31:05;21.80;98.90
8872;DHT22;4472;52.092;9.820;2022-08-19T09:33:53;21.70;99.70
8872;DHT22;4472;52.092;9.820;2022-08-19T09:36:44;21.70;99.40
8872;DHT22;4472;52.092;9.820;2022-08-19T09:39:31;21.70;99.10
8872;DHT22;4472;52.092;9.820;2022-08-19T09:42:18;21.70;99.10
8872;DHT22;4472;52.092;9.820;2022-08-19T09:45:08;21.70;99.10
8872;DHT22;4472;52.092;9.820;2022-08-19T09:47:56;21.90;98.30
8872;DHT22;4472;52.092;9.820;2022-08-19T09:50:43;22.00;98.30
8872;DHT22;4472;52.092;9.820;2022-08-19T09:53:32;22.10;98.00
8872;DHT22;4472;52.092;9.820;2022-08-19T09:56:21;22.30;97.00
8872;DHT22;4472;52.092;9.820;2022-08-19T09:59:08;22.20;96.60
8872;DHT22;4472;52.092;9.820;2022-08-19T10:01:57;22.30;96.50
8872;DHT22;4472;52.092;9.820;2022-08-19T10:04:44;22.50;96.10
8872;DHT22;4472;52.092;9.820;2022-08-19T10:07:50;22.70;93.70
8872;DHT22;4472;52.092;9.820;2022-08-19T10:10:39;22.80;94.50
8872;DHT22;4472;52.092;9.820;2022-08-19T10:13:30;22.90;94.00
8872;DHT22;4472;52.092;9.820;2022-08-19T10:16:19;23.10;94.20
8872;DHT22;4472;52.092;9.820;2022-08-19T10:19:08;23.20;93.80
8872;DHT22;4472;52.092;9.820;2022-08-19T10:21:56;23.30;94.50
8872;DHT22;4472;52.092;9.820;2022-08-19T10:24:43;23.50;93.20
8872;DHT22;4472;52.092;9.820;2022-08-19T10:27:32;23.60;93.20
8872;DHT22;4472;52.092;9.820;2022-08-19T10:30:19;23.70;92.90
8872;DHT22;4472;52.092;9.820;2022-08-19T10:33:07;23.70;93.30
8872;DHT22;4472;52.092;9.820;2022-08-19T10:35:59;23.70;92.80
8872;DHT22;4472;52.092;9.820;2022-08-19T10:38:51;23.70;93.00
8872;DHT22;4472;52.092;9.820;2022-08-19T10:41:39;23.90;93.40
8872;DHT22;4472;52.092;9.820;2022-08-19T10:44:32;24.00;93.70
8872;DHT22;4472;52.092;9.820;2022-08-19T10:47:22;24.20;92.30
8872;DHT22;4472;52.092;9.820;2022-08-19T10:50:09;24.10;92.20
8872;DHT22;4472;52.092;9.820;2022-08-19T10:53:14;24.10;92.20
8872;DHT22;4472;52.092;9.820;2022-08-19T10:56:02;24.30;92.10
8872;DHT22;4472;52.092;9.820;2022-08-19T10:59:21;24.30;91.80
8872;DHT22;4472;52.092;9.820;2022-08-19T11:02:10;24.40;91.50
8872;DHT22;4472;52.092;9.820;2022-08-19T11:04:58;24.40;90.80
8872;DHT22;4472;52.092;9.820;2022-08-19T11:07:46;24.50;91.00
8872;DHT22;4472;52.092;9.820;2022-08-19T11:10:33;24.50;90.20
8872;DHT22;4472;52.092;9.820;2022-08-19T11:13:20;24.50;88.70
8872;DHT22;4472;52.092;9.820;2022-08-19T11:16:09;24.50;87.50
8872;DHT22;4472;52.092;9.820;2022-08-19T11:19:00;24.60;86.80
8872;DHT22;4472;52.092;9.820;2022-08-19T11:21:48;24.60;86.40
8872;DHT22;4472;52.092;9.820;2022-08-19T11:24:36;24.60;85.50
8872;DHT22;4472;52.092;9.820;2022-08-19T11:27:23;24.60;85.90
8872;DHT22;4472;52.092;9.820;2022-08-19T11:30:12;24.70;85.90
8872;DHT22;4472;52.092;9.820;2022-08-19T11:33:00;24.90;85.90
8872;DHT22;4472;52.092;9.820;2022-08-19T11:35:49;24.90;85.50
8872;DHT22;4472;52.092;9.820;2022-08-19T11:38:37;25.00;85.90
8872;DHT22;4472;52.092;9.820;2022-08-19T11:41:25;25.30;85.70
8872;DHT22;4472;52.092;9.820;2022-08-19T11:44:12;25.50;82.80
8872;DHT22;4472;52.092;9.820;2022-08-19T11:47:00;25.60;80.40
8872;DHT22;4472;52.092;9.820;2022-08-19T11:49:47;25.60;81.70
8872;DHT22;4472;52.092;9.820;2022-08-19T11:52:36;25.60;81.40
8872;DHT22;4472;52.092;9.820;2022-08-19T11:55:23;25.70;79.80
8872;DHT22;4472;52.092;9.820;2022-08-19T11:58:11;25.70;80.90
8872;DHT22;4472;52.092;9.820;2022-08-19T12:00:58;25.90;80.70
8872;DHT22;4472;52.092;9.820;2022-08-19T12:03:47;26.00;78.30
8872;DHT22;4472;52.092;9.820;2022-08-19T12:06:38;26.00;75.90
8872;DHT22;4472;52.092;9.820;2022-08-19T12:09:26;25.90;75.70
8872;DHT22;4472;52.092;9.820;2022-08-19T12:12:14;25.80;78.40
8872;DHT22;4472;52.092;9.820;2022-08-19T12:15:02;25.80;73.90
8872;DHT22;4472;52.092;9.820;2022-08-19T12:17:51;25.80;72.20
8872;DHT22;4472;52.092;9.820;2022-08-19T12:20:43;25.70;73.00
8872;DHT22;4472;52.092;9.820;2022-08-19T12:23:31;25.80;69.80
8872;DHT22;4472;52.092;9.820;2022-08-19T12:26:20;25.90;69.30
8872;DHT22;4472;52.092;9.820;2022-08-19T12:29:07;25.80;70.40
8872;DHT22;4472;52.092;9.820;2022-08-19T12:31:55;25.90;72.80
8872;DHT22;4472;52.092;9.820;2022-08-19T12:34:46;25.90;70.30
8872;DHT22;4472;52.092;9.820;2022-08-19T12:37:33;26.00;71.70
8872;DHT22;4472;52.092;9.820;2022-08-19T12:40:20;26.10;72.00
8872;DHT22;4472;52.092;9.820;2022-08-19T12:43:09;26.10;70.30
8872;DHT22;4472;52.092;9.820;2022-08-19T12:45:57;26.20;71.90
8872;DHT22;4472;52.092;9.820;2022-08-19T12:48:45;26.20;70.40
8872;DHT22;4472;52.092;9.820;2022-08-19T12:51:32;26.20;71.70
8872;DHT22;4472;52.092;9.820;2022-08-19T12:54:19;26.20;73.60
8872;DHT22;4472;52.092;9.820;2022-08-19T12:57:07;26.20;70.80
8872;DHT22;4472;52.092;9.820;2022-08-19T12:59:56;26.20;71.20
8872;DHT22;4472;52.092;9.820;2022-08-19T13:02:45;26.20;69.70
8872;DHT22;4472;52.092;9.820;2022-08-19T13:05:35;26.10;70.80
8872;DHT22;4472;52.092;9.820;2022-08-19T13:08:22;26.10;70.50
8872;DHT22;4472;52.092;9.820;2022-08-19T13:11:11;26.10;71.10
8872;DHT22;4472;52.092;9.820;2022-08-19T13:13:59;26.10;69.90
8872;DHT22;4472;52.092;9.820;2022-08-19T13:16:48;26.10;69.50
8872;DHT22;4472;52.092;9.820;2022-08-19T13:19:36;26.00;68.90
8872;DHT22;4472;52.092;9.820;2022-08-19T13:22:25;26.00;70.00
8872;DHT22;4472;52.092;9.820;2022-08-19T13:25:13;26.10;70.50
8872;DHT22;4472;52.092;9.820;2022-08-19T13:28:02;26.20;70.10
8872;DHT22;4472;52.092;9.820;2022-08-19T13:30:52;26.20;71.30
8872;DHT22;4472;52.092;9.820;2022-08-19T13:33:58;26.20;72.70
8872;DHT22;4472;52.092;9.820;2022-08-19T13:36:45;26.30;70.30
8872;DHT22;4472;52.092;9.820;2022-08-19T13:39:33;26.40;70.10
8872;DHT22;4472;52.092;9.820;2022-08-19T13:42:20;26.40;71.10
8872;DHT22;4472;52.092;9.820;2022-08-19T13:45:08;26.50;69.90
8872;DHT22;4472;52.092;9.820;2022-08-19T13:47:57;26.50;70.30
8872;DHT22;4472;52.092;9.820;2022-08-19T13:50:45;26.50;72.40
8872;DHT22;4472;52.092;9.820;2022-08-19T13:53:33;26.60;71.90
8872;DHT22;4472;52.092;9.820;2022-08-19T13:56:21;26.60;72.00
8872;DHT22;4472;52.092;9.820;2022-08-19T13:59:08;26.60;71.20
8872;DHT22;4472;52.092;9.820;2022-08-19T14:01:57;26.60;72.70
8872;DHT22;4472;52.092;9.820;2022-08-19T14:04:45;26.60;73.10
8872;DHT22;4472;52.092;9.820;2022-08-19T14:07:33;26.70;72.20
8872;DHT22;4472;52.092;9.820;2022-08-19T14:10:22;26.70;71.80
8872;DHT22;4472;52.092;9.820;2022-08-19T14:13:12;26.70;71.00
8872;DHT22;4472;52.092;9.820;2022-08-19T14:16:00;26.80;71.80
8872;DHT22;4472;52.092;9.820;2022-08-19T14:18:48;26.80;70.10
8872;DHT22;4472;52.092;9.820;2022-08-19T14:21:35;26.80;72.40
8872;DHT22;4472;52.092;9.820;2022-08-19T14:24:23;26.90;71.20
8872;DHT22;4472;52.092;9.820;2022-08-19T14:27:11;26.80;71.40
8872;DHT22;4472;52.092;9.820;2022-08-19T14:29:58;26.90;70.90
8872;DHT22;4472;52.092;9.820;2022-08-19T14:32:45;26.90;70.10
8872;DHT22;4472;52.092;9.820;2022-08-19T14:35:33;26.80;69.80
8872;DHT22;4472;52.092;9.820;2022-08-19T14:38:21;26.90;70.20
8872;DHT22;4472;52.092;9.820;2022-08-19T14:41:12;27.00;69.00
8872;DHT22;4472;52.092;9.820;2022-08-19T14:44:02;27.00;68.60
8872;DHT22;4472;52.092;9.820;2022-08-19T14:46:49;27.10;68.80
8872;DHT22;4472;52.092;9.820;2022-08-19T14:49:37;27.00;66.90
8872;DHT22;4472;52.092;9.820;2022-08-19T14:52:25;27.10;67.90
8872;DHT22;4472;52.092;9.820;2022-08-19T14:55:15;27.00;68.00
8872;DHT22;4472;52.092;9.820;2022-08-19T14:58:03;27.00;66.70
8872;DHT22;4472;52.092;9.820;2022-08-19T15:00:51;27.10;68.00
8872;DHT22;4472;52.092;9.820;2022-08-19T15:03:38;27.00;65.40
8872;DHT22;4472;52.092;9.820;2022-08-19T15:06:27;27.00;65.20
8872;DHT22;4472;52.092;9.820;2022-08-19T15:09:14;27.00;66.90
8872;DHT22;4472;52.092;9.820;2022-08-19T15:12:02;27.10;65.50
8872;DHT22;4472;52.092;9.820;2022-08-19T15:14:51;27.10;65.40
8872;DHT22;4472;52.092;9.820;2022-08-19T15:17:39;27.10;64.50
8872;DHT22;4472;52.092;9.820;2022-08-19T15:20:27;27.10;64.50
8872;DHT22;4472;52.092;9.820;2022-08-19T15:23:15;27.00;66.10
8872;DHT22;4472;52.092;9.820;2022-08-19T15:26:03;27.10;66.50
8872;DHT22;4472;52.092;9.820;2022-08-19T15:28:51;27.20;65.10
8872;DHT22;4472;52.092;9.820;2022-08-19T15:31:39;27.20;64.20
8872;DHT22;4472;52.092;9.820;2022-08-19T15:34:26;27.20;64.60
8872;DHT22;4472;52.092;9.820;2022-08-19T15:37:17;27.10;64.50
8872;DHT22;4472;52.092;9.820;2022-08-19T15:40:07;27.10;64.70
8872;DHT22;4472;52.092;9.820;2022-08-19T15:42:55;27.10;64.50
8872;DHT22;4472;52.092;9.820;2022-08-19T15:45:44;27.20;64.50
8872;DHT22;4472;52.092;9.820;2022-08-19T15:48:32;27.20;65.70
8872;DHT22;4472;52.092;9.820;2022-08-19T15:51:20;27.30;64.80
8872;DHT22;4472;52.092;9.820;2022-08-19T15:54:10;27.40;64.30
8872;DHT22;4472;52.092;9.820;2022-08-19T15:56:58;27.50;63.50
8872;DHT22;4472;52.092;9.820;2022-08-19T16:00:04;27.60;63.80
8872;DHT22;4472;52.092;9.820;2022-08-19T16:03:13;27.60;63.40
8872;DHT22;4472;52.092;9.820;2022-08-19T16:06:21;27.60;62.60
8872;DHT22;4472;52.092;9.820;2022-08-19T16:09:19;27.50;62.50
8872;DHT22;4472;52.092;9.820;2022-08-19T16:12:07;27.50;63.80
8872;DHT22;4472;52.092;9.820;2022-08-19T16:14:55;27.50;61.80
8872;DHT22;4472;52.092;9.820;2022-08-19T16:17:42;27.40;63.00
8872;DHT22;4472;52.092;9.820;2022-08-19T16:20:30;27.40;62.90
8872;DHT22;4472;52.092;9.820;2022-08-19T16:23:19;27.40;62.70
8872;DHT22;4472;52.092;9.820;2022-08-19T16:26:06;27.40;63.50
8872;DHT22;4472;52.092;9.820;2022-08-19T16:28:54;27.40;63.90
8872;DHT22;4472;52.092;9.820;2022-08-19T16:31:44;27.40;63.80
8872;DHT22;4472;52.092;9.820;2022-08-19T16:34:32;27.50;62.80
8872;DHT22;4472;52.092;9.820;2022-08-19T16:37:19;27.40;63.90
8872;DHT22;4472;52.092;9.820;2022-08-19T16:40:10;27.40;63.00
8872;DHT22;4472;52.092;9.820;2022-08-19T16:42:57;27.40;61.90
8872;DHT22;4472;52.092;9.820;2022-08-19T16:45:45;27.30;62.70
8872;DHT22;4472;52.092;9.820;2022-08-19T16:48:32;27.20;62.40
8872;DHT22;4472;52.092;9.820;2022-08-19T16:51:19;27.10;62.50
8872;DHT22;4472;52.092;9.820;2022-08-19T16:54:08;27.00;62.30
8872;DHT22;4472;52.092;9.820;2022-08-19T16:56:57;26.90;63.50
8872;DHT22;4472;52.092;9.820;2022-08-19T16:59:44;26.80;62.50
8872;DHT22;4472;52.092;9.820;2022-08-19T17:02:31;26.80;63.20
8872;DHT22;4472;52.092;9.820;2022-08-19T17:05:20;26.70;63.20
8872;DHT22;4472;52.092;9.820;2022-08-19T17:08:07;26.60;63.50
8872;DHT22;4472;52.092;9.820;2022-08-19T17:10:56;26.50;63.80
8872;DHT22;4472;52.092;9.820;2022-08-19T17:13:46;26.40;64.40
8872;DHT22;4472;52.092;9.820;2022-08-19T17:16:36;25.50;64.40
8872;DHT22;4472;52.092;9.820;2022-08-19T17:19:24;26.30;65.10
8872;DHT22;4472;52.092;9.820;2022-08-19T17:22:12;26.20;65.70
8872;DHT22;4472;52.092;9.820;2022-08-19T17:24:59;26.10;66.00
8872;DHT22;4472;52.092;9.820;2022-08-19T17:27:46;26.00;66.50
8872;DHT22;4472;52.092;9.820;2022-08-19T17:30:35;25.90;66.90
8872;DHT22;4472;52.092;9.820;2022-08-19T17:33:25;25.80;67.10
8872;DHT22;4472;52.092;9.820;2022-08-19T17:36:12;25.80;67.80
8872;DHT22;4472;52.092;9.820;2022-08-19T17:39:01;25.70;68.20
8872;DHT22;4472;52.092;9.820;2022-08-19T17:41:49;25.60;68.50
8872;DHT22;4472;52.092;9.820;2022-08-19T17:44:37;25.60;69.00
8872;DHT22;4472;52.092;9.820;2022-08-19T17:47:27;25.50;69.30
8872;DHT22;4472;52.092;9.820;2022-08-19T17:50:14;25.40;69.40
8872;DHT22;4472;52.092;9.820;2022-08-19T17:53:03;25.30;69.70
8872;DHT22;4472;52.092;9.820;2022-08-19T17:55:50;25.30;71.20
8872;DHT22;4472;52.092;9.820;2022-08-19T17:58:37;25.20;71.30
8872;DHT22;4472;52.092;9.820;2022-08-19T18:01:25;25.20;71.10
8872;DHT22;4472;52.092;9.820;2022-08-19T18:04:14;25.10;72.50
8872;DHT22;4472;52.092;9.820;2022-08-19T18:07:01;25.00;72.10
8872;DHT22;4472;52.092;9.820;2022-08-19T18:09:49;25.00;74.10
8872;DHT22;4472;52.092;9.820;2022-08-19T18:12:38;24.90;74.60
8872;DHT22;4472;52.092;9.820;2022-08-19T18:15:26;24.70;74.90
8872;DHT22;4472;52.092;9.820;2022-08-19T18:18:13;24.60;76.30
8872;DHT22;4472;52.092;9.820;2022-08-19T18:21:02;24.40;76.00
8872;DHT22;4472;52.092;9.820;2022-08-19T18:23:49;24.30;77.00